createdAt,value
2022-12-27T00:01:46.211Z,86.09
2022-12-27T00:04:18.980Z,86.98
2022-12-27T00:06:51.676Z,85.68
2022-12-27T00:09:24.639Z,83.68
2022-12-27T00:11:59.952Z,82.25
2022-12-27T00:14:33.037Z,80.81
2022-12-27T00:17:06.032Z,79.77
2022-12-27T00:19:38.994Z,79.95
2022-12-27T00:22:12.933Z,80.54
2022-12-27T00:24:45.796Z,80.20
2022-12-27T00:27:18.477Z,80.70
2022-12-27T00:29:52.330Z,81.30
2022-12-27T00:32:27.387Z,81.45
2022-12-27T00:35:00.353Z,81.30
2022-12-27T00:37:33.066Z,81.71
2022-12-27T00:40:12.376Z,82.13
2022-12-27T00:42:45.191Z,82.08
2022-12-27T00:45:20.343Z,82.06
2022-12-27T00:47:56.096Z,82.33
2022-12-27T00:50:29.261Z,82.97
2022-12-27T00:53:04.641Z,82.45
2022-12-27T00:55:37.748Z,82.72
2022-12-27T00:58:11.490Z,83.26
2022-12-27T01:00:44.558Z,83.48
2022-12-27T01:03:18.013Z,82.99
2022-12-27T01:05:51.590Z,83.16
2022-12-27T01:08:24.586Z,82.97
2022-12-27T01:10:57.449Z,83.39
2022-12-27T01:13:30.857Z,83.22
2022-12-27T01:16:12.755Z,83.22
2022-12-27T01:18:45.616Z,83.54
2022-12-27T01:21:20.713Z,83.27
2022-12-27T01:23:53.752Z,83.53
2022-12-27T01:26:26.874Z,83.03
2022-12-27T01:28:59.560Z,83.17
2022-12-27T01:31:32.485Z,83.39
2022-12-27T01:34:05.259Z,83.75
2022-12-27T01:36:37.935Z,83.89
2022-12-27T01:39:13.965Z,84.03
2022-12-27T01:42:05.441Z,84.13
2022-12-27T01:44:57.047Z,84.35
2022-12-27T01:47:45.604Z,84.49
2022-12-27T01:50:24.884Z,84.50
2022-12-27T01:53:03.560Z,84.38
2022-12-27T01:55:41.148Z,84.47
2022-12-27T01:58:19.133Z,84.56
2022-12-27T02:00:54.989Z,84.67
2022-12-27T02:03:31.535Z,84.71
2022-12-27T02:06:07.169Z,84.72
2022-12-27T02:08:50.293Z,84.91
2022-12-27T02:11:41.692Z,84.74
2022-12-27T02:14:16.781Z,84.73
2022-12-27T02:16:49.454Z,84.66
2022-12-27T02:19:33.079Z,84.76
2022-12-27T02:26:39.325Z,84.87
2022-12-27T02:29:31.540Z,84.91
2022-12-27T02:32:08.761Z,84.89
2022-12-27T02:34:57.311Z,84.98
2022-12-27T02:37:33.197Z,84.86
2022-12-27T02:40:28.504Z,85.20
2022-12-27T02:43:23.042Z,85.15
2022-12-27T02:46:28.213Z,85.36
2022-12-27T02:49:22.985Z,85.30
2022-12-27T02:52:29.191Z,85.74
2022-12-27T02:55:17.066Z,85.70
2022-12-27T02:58:15.407Z,85.68
2022-12-27T03:01:14.101Z,85.46
2022-12-27T03:04:05.026Z,85.97
2022-12-27T03:06:59.731Z,85.86
2022-12-27T03:10:21.485Z,85.82
2022-12-27T03:13:21.953Z,85.89
2022-12-27T03:16:09.083Z,86.11
2022-12-27T03:18:54.754Z,86.30
2022-12-27T03:22:00.725Z,86.28
2022-12-27T03:25:06.070Z,86.55
2022-12-27T03:27:44.467Z,86.70
2022-12-27T03:30:34.826Z,86.48
2022-12-27T03:33:14.663Z,86.87
2022-12-27T03:54:40.301Z,87.04
2022-12-27T03:57:14.609Z,87.29
2022-12-27T03:59:44.146Z,87.12
2022-12-27T04:02:14.304Z,87.12
2022-12-27T04:04:44.010Z,87.24
2022-12-27T04:10:20.439Z,87.33
2022-12-27T04:13:08.055Z,87.24
2022-12-27T04:15:55.570Z,87.37
2022-12-27T04:18:42.838Z,87.59
2022-12-27T04:21:30.155Z,87.58
2022-12-27T04:24:19.792Z,87.81
2022-12-27T04:27:07.356Z,87.64
2022-12-27T04:29:57.816Z,87.79
2022-12-27T04:32:45.662Z,88.00
2022-12-27T04:35:15.011Z,88.01
2022-12-27T04:37:44.407Z,88.14
2022-12-27T04:40:31.877Z,88.13
2022-12-27T04:43:19.368Z,88.36
2022-12-27T04:46:06.701Z,88.39
2022-12-27T04:49:08.680Z,88.61
2022-12-27T04:51:56.215Z,89.12
2022-12-27T04:54:44.331Z,89.13
2022-12-27T04:57:13.668Z,89.03
2022-12-27T05:00:01.088Z,89.06
2022-12-27T05:02:30.766Z,89.00
2022-12-27T05:05:00.768Z,89.09
2022-12-27T05:07:48.683Z,89.05
2022-12-27T05:10:36.639Z,89.01
2022-12-27T05:13:24.231Z,89.14
2022-12-27T05:15:53.569Z,89.36
2022-12-27T05:18:26.688Z,89.60
2022-12-27T05:21:03.518Z,89.32
2022-12-27T05:23:52.910Z,89.63
2022-12-27T05:26:24.339Z,89.61
2022-12-27T05:28:55.016Z,89.92
2022-12-27T05:31:26.487Z,90.03
2022-12-27T05:33:57.160Z,90.18
2022-12-27T05:36:27.076Z,90.26
2022-12-27T05:38:57.569Z,90.31
2022-12-27T05:41:31.292Z,90.43
2022-12-27T05:44:07.179Z,90.47
2022-12-27T05:46:37.135Z,90.38
2022-12-27T05:49:06.737Z,90.22
2022-12-27T05:51:35.950Z,90.44
2022-12-27T05:54:05.682Z,90.62
2022-12-27T05:56:36.710Z,90.44
2022-12-27T05:59:07.371Z,90.49
2022-12-27T06:01:39.027Z,90.69
2022-12-27T06:04:10.198Z,90.54
2022-12-27T06:06:41.723Z,90.37
2022-12-27T06:09:11.058Z,90.30
2022-12-27T06:15:33.799Z,90.45
2022-12-27T06:18:27.152Z,90.31
2022-12-27T06:21:02.771Z,90.61
2022-12-27T06:23:32.721Z,90.36
2022-12-27T06:26:06.741Z,90.29
2022-12-27T06:28:36.344Z,90.45
2022-12-27T06:31:06.689Z,90.44
2022-12-27T06:33:36.001Z,90.33
2022-12-27T06:36:49.174Z,90.19
2022-12-27T06:39:19.442Z,90.40
2022-12-27T06:41:53.405Z,90.33
2022-12-27T06:44:22.772Z,90.38
2022-12-27T06:46:52.139Z,90.48
2022-12-27T06:49:22.827Z,90.53
2022-12-27T06:51:59.059Z,90.68
2022-12-27T06:54:33.847Z,90.63
2022-12-27T06:57:03.395Z,90.68
2022-12-27T06:59:32.676Z,90.80
2022-12-27T07:02:02.143Z,90.57
2022-12-27T07:04:34.923Z,90.46
2022-12-27T07:07:04.767Z,90.42
2022-12-27T07:09:34.013Z,90.41
2022-12-27T07:12:17.077Z,90.48
2022-12-27T07:15:00.710Z,90.50
2022-12-27T07:17:30.133Z,90.38
2022-12-27T07:19:59.435Z,90.12
2022-12-27T07:22:28.962Z,90.19
2022-12-27T07:24:58.210Z,89.95
2022-12-27T07:27:27.481Z,90.02
2022-12-27T07:29:56.909Z,89.90
2022-12-27T07:32:26.158Z,90.06
2022-12-27T07:34:55.628Z,90.04
2022-12-27T07:37:24.904Z,89.95
2022-12-27T07:39:54.171Z,89.80
2022-12-27T07:42:23.636Z,89.97
2022-12-27T07:44:53.047Z,89.80
2022-12-27T07:47:22.277Z,89.82
2022-12-27T07:49:51.741Z,89.81
2022-12-27T07:52:21.070Z,89.88
2022-12-27T07:54:50.352Z,89.86
2022-12-27T07:57:19.737Z,89.73
2022-12-27T07:59:49.202Z,89.43
2022-12-27T08:02:18.574Z,89.46
2022-12-27T08:04:48.487Z,89.43
2022-12-27T08:08:23.587Z,89.39
2022-12-27T08:10:53.102Z,89.11
2022-12-27T08:13:22.662Z,89.19
2022-12-27T08:16:00.664Z,88.83
2022-12-27T08:18:30.080Z,88.76
2022-12-27T08:20:59.381Z,88.58
2022-12-27T08:23:28.620Z,88.43
2022-12-27T08:25:57.941Z,88.60
2022-12-27T08:28:31.040Z,88.37
2022-12-27T08:31:00.919Z,88.18
2022-12-27T08:33:30.254Z,88.24
2022-12-27T08:36:15.723Z,88.34
2022-12-27T08:38:55.911Z,88.31
2022-12-27T08:41:25.453Z,88.44
2022-12-27T08:43:54.749Z,88.41
2022-12-27T08:46:28.589Z,88.48
2022-12-27T08:49:00.915Z,88.31
2022-12-27T08:52:00.414Z,88.08
2022-12-27T08:54:44.349Z,88.24
2022-12-27T08:57:13.627Z,88.17
2022-12-27T08:59:42.931Z,87.85
2022-12-27T09:02:13.930Z,87.83
2022-12-27T09:04:44.462Z,87.76
2022-12-27T09:07:13.939Z,87.50
2022-12-27T09:09:44.396Z,87.69
2022-12-27T09:12:13.682Z,87.31
2022-12-27T09:14:42.921Z,87.27
2022-12-27T09:17:13.347Z,86.83
2022-12-27T09:19:42.648Z,86.86
2022-12-27T09:22:12.065Z,86.72
2022-12-27T09:24:41.391Z,86.47
2022-12-27T09:27:10.693Z,86.38
2022-12-27T09:29:43.166Z,85.62
2022-12-27T09:32:17.435Z,85.62
2022-12-27T09:34:49.050Z,85.46
2022-12-27T09:37:18.317Z,85.68
2022-12-27T09:39:47.791Z,85.33
2022-12-27T09:42:50.137Z,85.31
2022-12-27T09:45:28.402Z,85.23
2022-12-27T09:48:02.178Z,84.82
2022-12-27T09:50:35.916Z,84.81
2022-12-27T09:53:16.781Z,84.60
2022-12-27T09:55:50.192Z,84.86
2022-12-27T09:58:34.179Z,85.15
2022-12-27T10:01:14.923Z,85.26
2022-12-27T10:03:44.839Z,85.53
2022-12-27T10:06:26.906Z,85.40
2022-12-27T10:09:02.637Z,85.51
2022-12-27T10:11:41.166Z,85.55
2022-12-27T10:14:25.756Z,85.62
2022-12-27T10:17:02.239Z,85.59
2022-12-27T10:19:42.104Z,85.52
2022-12-27T10:22:26.646Z,85.51
2022-12-27T10:25:03.948Z,85.55
2022-12-27T10:27:33.323Z,85.40
2022-12-27T10:30:13.819Z,85.59
2022-12-27T10:32:43.312Z,85.19
2022-12-27T10:35:18.950Z,85.18
2022-12-27T10:37:49.649Z,85.25
2022-12-27T10:40:25.541Z,85.45
2022-12-27T10:43:04.811Z,85.62
2022-12-27T10:45:38.531Z,85.37
2022-12-27T10:48:22.996Z,85.32
2022-12-27T10:50:56.631Z,85.31
2022-12-27T10:53:36.536Z,85.26
2022-12-27T10:56:13.161Z,84.76
2022-12-27T10:58:45.642Z,84.70
2022-12-27T11:01:22.745Z,84.64
2022-12-27T11:04:11.900Z,84.42
2022-12-27T11:06:47.414Z,84.56
2022-12-27T11:09:26.759Z,84.41
2022-12-27T11:12:13.122Z,84.65
2022-12-27T11:14:55.544Z,84.72
2022-12-27T11:17:37.185Z,84.76
2022-12-27T11:20:26.483Z,84.87
2022-12-27T11:22:59.259Z,84.65
2022-12-27T11:25:31.716Z,84.75
2022-12-27T11:28:04.461Z,84.87
2022-12-27T11:30:37.644Z,84.95
2022-12-27T11:33:24.406Z,84.60
2022-12-27T11:35:57.008Z,85.00
2022-12-27T11:38:29.329Z,85.09
2022-12-27T11:41:05.510Z,85.04
2022-12-27T11:44:11.745Z,84.64
2022-12-27T11:46:47.266Z,84.93
2022-12-27T11:49:22.602Z,85.25
2022-12-27T11:52:18.835Z,85.48
2022-12-27T11:55:23.909Z,85.54
2022-12-27T11:58:33.939Z,85.53
2022-12-27T12:01:24.986Z,85.74
2022-12-27T12:04:06.780Z,85.46
2022-12-27T12:06:47.161Z,85.67
2022-12-27T12:09:50.043Z,85.68
2022-12-27T12:12:51.686Z,85.67
2022-12-27T12:15:41.560Z,85.55
2022-12-27T12:18:33.780Z,85.75
2022-12-27T12:21:26.427Z,85.98
2022-12-27T12:24:37.902Z,85.86
2022-12-27T12:27:27.558Z,85.83
2022-12-27T12:30:27.742Z,85.62
2022-12-27T12:33:13.080Z,85.45
2022-12-27T12:36:22.621Z,85.50
2022-12-27T12:38:58.530Z,85.28
2022-12-27T12:41:47.735Z,85.05
2022-12-27T12:44:45.939Z,84.98
2022-12-27T12:47:33.636Z,84.75
2022-12-27T12:50:35.945Z,84.64
2022-12-27T12:53:32.803Z,84.52
2022-12-27T12:56:22.148Z,84.45
2022-12-27T12:58:59.829Z,84.49
2022-12-27T13:01:50.926Z,84.31
2022-12-27T13:04:58.074Z,84.08
2022-12-27T13:07:46.392Z,84.34
2022-12-27T13:10:42.777Z,84.14
2022-12-27T13:13:25.309Z,84.10
2022-12-27T13:16:05.817Z,84.16
2022-12-27T13:18:46.906Z,84.03
2022-12-27T13:21:29.119Z,83.83
2022-12-27T13:24:10.624Z,84.20
2022-12-27T13:26:47.938Z,84.71
2022-12-27T13:29:38.656Z,85.03
2022-12-27T13:32:19.360Z,85.32
2022-12-27T13:35:24.636Z,85.63
2022-12-27T13:38:07.016Z,86.16
2022-12-27T13:40:55.621Z,86.64
2022-12-27T13:43:52.565Z,86.80
2022-12-27T13:46:43.127Z,86.91
2022-12-27T13:49:43.799Z,87.16
2022-12-27T13:52:25.689Z,87.17
2022-12-27T13:55:21.553Z,87.26
2022-12-27T13:58:21.643Z,87.27
2022-12-27T14:01:01.383Z,87.17
2022-12-27T14:04:04.273Z,86.98
2022-12-27T14:06:58.429Z,86.85
2022-12-27T14:09:56.494Z,86.81
2022-12-27T14:12:52.793Z,86.72
2022-12-27T14:15:51.009Z,86.71
2022-12-27T14:18:44.357Z,86.57
2022-12-27T14:21:37.067Z,86.40
2022-12-27T14:24:55.301Z,86.47
2022-12-27T14:28:04.664Z,86.11
2022-12-27T14:31:14.240Z,85.99
2022-12-27T14:34:27.594Z,86.17
2022-12-27T14:37:16.695Z,85.67
2022-12-27T14:40:16.931Z,85.52
2022-12-27T14:43:34.804Z,85.69
2022-12-27T14:46:44.978Z,85.67
2022-12-27T14:53:31.125Z,85.86
2022-12-27T14:56:12.185Z,86.01
2022-12-27T14:59:16.994Z,85.84
2022-12-27T15:01:59.040Z,85.89
2022-12-27T15:04:54.924Z,85.76
2022-12-27T15:07:56.831Z,85.67
2022-12-27T15:10:49.172Z,85.64
2022-12-27T15:13:31.318Z,85.86
2022-12-27T15:16:13.362Z,85.87
2022-12-27T15:18:57.591Z,85.84
2022-12-27T15:22:19.471Z,85.93
2022-12-27T15:24:58.316Z,85.73
2022-12-27T15:27:45.934Z,85.87
2022-12-27T15:30:45.527Z,85.71
2022-12-27T15:34:20.407Z,85.73
2022-12-27T15:36:52.305Z,85.86
2022-12-27T15:39:47.285Z,85.80
2022-12-27T15:42:55.166Z,85.85
2022-12-27T15:45:57.532Z,85.80
2022-12-27T15:48:58.338Z,85.79
2022-12-27T15:51:44.025Z,85.70
2022-12-27T15:54:41.202Z,85.65
2022-12-27T15:57:57.979Z,85.78
2022-12-27T16:01:26.386Z,85.80
2022-12-27T16:04:01.427Z,85.83
2022-12-27T16:07:24.984Z,85.61
2022-12-27T16:09:55.505Z,85.93
2022-12-27T16:12:41.475Z,85.58
2022-12-27T16:15:52.819Z,85.78
2022-12-27T16:19:04.539Z,85.74
2022-12-27T16:22:11.567Z,85.58
2022-12-27T16:24:46.244Z,85.57
2022-12-27T16:27:31.657Z,85.58
2022-12-27T16:30:01.189Z,85.44
2022-12-27T16:32:45.302Z,85.28
2022-12-27T16:35:16.430Z,85.34
2022-12-27T16:37:53.586Z,85.20
2022-12-27T16:40:51.930Z,85.14
2022-12-27T16:44:14.245Z,85.14
2022-12-27T16:47:13.300Z,85.30
2022-12-27T16:50:34.727Z,85.32
2022-12-27T16:53:35.635Z,85.41
2022-12-27T17:00:41.593Z,85.46
2022-12-27T17:03:47.754Z,85.64
2022-12-27T17:06:57.843Z,85.81
2022-12-27T17:09:51.840Z,85.83
2022-12-27T17:12:29.299Z,85.83
2022-12-27T17:15:07.628Z,85.73
2022-12-27T17:17:40.416Z,85.80
2022-12-27T17:20:19.499Z,85.79
2022-12-27T17:22:58.218Z,85.57
2022-12-27T17:25:44.527Z,85.60
2022-12-27T17:28:24.146Z,85.54
2022-12-27T17:31:12.970Z,85.52
2022-12-27T17:34:02.592Z,85.48
2022-12-27T17:36:49.211Z,85.41
2022-12-27T17:39:58.800Z,85.33
2022-12-27T17:42:54.404Z,85.45
2022-12-27T17:45:49.617Z,85.44
2022-12-27T17:48:29.325Z,85.41
2022-12-27T17:51:07.186Z,85.52
2022-12-27T17:54:18.288Z,85.40
2022-12-27T17:57:43.978Z,85.46
2022-12-27T18:00:45.273Z,85.74
2022-12-27T18:03:27.994Z,85.64
2022-12-27T18:06:03.341Z,85.50
2022-12-27T18:09:04.963Z,85.57
2022-12-27T18:11:37.798Z,85.76
2022-12-27T18:14:17.027Z,85.87
2022-12-27T18:16:50.490Z,85.92
2022-12-27T18:19:23.604Z,85.64
2022-12-27T18:22:39.389Z,85.53
2022-12-27T18:25:51.054Z,85.71
2022-12-27T18:28:59.871Z,85.91
2022-12-27T18:31:45.385Z,85.64
2022-12-27T18:34:34.645Z,85.71
2022-12-27T18:37:10.071Z,85.74
2022-12-27T18:39:48.730Z,85.72
2022-12-27T18:45:47.127Z,85.74
2022-12-27T18:48:40.625Z,85.55
2022-12-27T18:51:17.782Z,85.71
2022-12-27T18:53:59.278Z,85.92
2022-12-27T18:56:55.599Z,85.62
2022-12-27T19:03:36.552Z,85.59
2022-12-27T19:07:10.607Z,85.50
2022-12-27T19:10:04.294Z,85.52
2022-12-27T19:13:04.429Z,85.67
2022-12-27T19:15:43.916Z,85.48
2022-12-27T19:23:33.031Z,85.40
2022-12-27T19:27:01.989Z,85.39
2022-12-27T19:29:42.638Z,85.36
2022-12-27T19:32:36.838Z,85.33
2022-12-27T19:35:16.741Z,85.46
2022-12-27T19:42:52.168Z,85.12
2022-12-27T19:57:30.557Z,84.75
2022-12-27T20:11:07.624Z,83.99
2022-12-27T20:13:37.531Z,84.01
2022-12-27T20:16:12.408Z,83.93
2022-12-27T20:18:42.937Z,83.68
2022-12-27T20:21:14.770Z,83.68
2022-12-27T20:23:44.620Z,83.79
2022-12-27T20:26:19.721Z,83.66
2022-12-27T20:28:52.888Z,83.59
2022-12-27T20:31:51.585Z,83.60
2022-12-27T20:34:21.175Z,83.58
2022-12-27T20:37:11.783Z,83.55
2022-12-27T20:39:41.245Z,83.43
2022-12-27T20:42:10.656Z,83.42
2022-12-27T20:44:40.204Z,83.31
2022-12-27T20:47:09.811Z,83.43
2022-12-27T20:49:39.476Z,83.35
2022-12-27T20:52:08.795Z,83.39
2022-12-27T20:54:44.168Z,83.39
2022-12-27T20:57:13.570Z,83.54
2022-12-27T20:59:49.373Z,83.33
2022-12-27T21:02:21.675Z,83.44
2022-12-27T21:04:51.335Z,83.38
2022-12-27T21:07:20.905Z,83.34
2022-12-27T21:09:50.502Z,83.43
2022-12-27T21:12:20.068Z,83.59
2022-12-27T21:15:31.336Z,83.62
2022-12-27T21:18:01.079Z,83.64
2022-12-27T21:20:39.100Z,83.80
2022-12-27T21:23:09.116Z,83.76
2022-12-27T21:25:40.535Z,83.64
2022-12-27T21:28:10.078Z,83.75
2022-12-27T21:31:15.425Z,83.87
2022-12-27T21:37:27.524Z,83.92
2022-12-27T21:39:58.141Z,83.90
2022-12-27T21:42:36.151Z,83.86
2022-12-27T21:45:07.715Z,84.01
2022-12-27T21:47:37.016Z,83.91
2022-12-27T21:50:07.718Z,83.73
2022-12-27T21:52:37.118Z,83.85
2022-12-27T21:55:07.350Z,83.87
2022-12-27T21:57:36.615Z,84.01
2022-12-27T22:00:18.700Z,84.03
2022-12-27T22:02:49.410Z,84.10
2022-12-27T22:05:19.047Z,84.02
2022-12-27T22:07:49.291Z,83.74
2022-12-27T22:10:35.203Z,83.93
2022-12-27T22:13:04.652Z,84.02
2022-12-27T22:15:33.901Z,83.89
2022-12-27T22:18:04.579Z,83.88
2022-12-27T22:20:33.899Z,83.86
2022-12-27T22:23:15.775Z,84.03
2022-12-27T22:25:47.163Z,84.18
2022-12-27T22:28:16.657Z,84.30
2022-12-27T22:30:48.505Z,84.04
2022-12-27T22:33:18.451Z,84.07
2022-12-27T22:35:47.834Z,84.17
2022-12-27T22:38:19.190Z,84.28
2022-12-27T22:40:51.035Z,84.37
2022-12-27T22:43:20.691Z,84.44
2022-12-27T22:45:53.728Z,84.36
2022-12-27T22:48:23.452Z,84.70
2022-12-27T22:50:52.721Z,84.83
2022-12-27T22:53:22.000Z,84.88
2022-12-27T22:55:51.272Z,85.18
2022-12-27T22:58:20.803Z,85.17
2022-12-27T23:00:50.147Z,85.40
2022-12-27T23:03:19.491Z,85.22
2022-12-27T23:06:02.792Z,85.64
2022-12-27T23:08:32.085Z,85.53
2022-12-27T23:11:10.382Z,85.91
2022-12-27T23:13:40.053Z,85.79
2022-12-27T23:16:12.292Z,85.84
2022-12-27T23:18:44.095Z,85.96
2022-12-27T23:21:22.981Z,85.71
2022-12-27T23:24:02.708Z,86.06
2022-12-27T23:26:32.035Z,86.27
2022-12-27T23:29:01.637Z,86.04
2022-12-27T23:31:31.615Z,86.07
2022-12-27T23:34:00.997Z,86.20
2022-12-27T23:36:32.125Z,86.27
2022-12-27T23:39:04.622Z,86.55
2022-12-27T23:41:36.445Z,86.61
2022-12-27T23:44:09.175Z,86.35
2022-12-27T23:46:38.480Z,86.57
2022-12-27T23:49:08.138Z,86.63
2022-12-27T23:51:37.435Z,86.32
2022-12-27T23:54:06.776Z,86.85
2022-12-27T23:56:36.303Z,86.78
2022-12-27T23:59:16.146Z,86.81
